Impacts METAR Board
IDs:

KTPA - Tampa Intl Arpt, FL, US

Updated at: 2000 UTC 23 Sep 2018
Potential Impact None Slight Moderate High
Time 23/08Z 23/09Z 23/10Z 23/11Z 23/12Z 23/13Z 23/14Z 23/15Z 23/16Z 23/17Z 23/18Z 23/19Z 23/20Z
Temp79 79 79 78 79 82 85 86 87 88 89 90 91
Dewpt73 73 73 73 73 74 74 73 73 73 73 74 73
Altim29.98 29.96 29.96 29.98 29.99 30.01 30.02 30.03 30.02 30.01 29.99 29.96 29.95
VIS10 10 10 10 10 10 10 10 10 10 10 10 10
CIG-- -- -- -- -- -- -- 190 250 42 40 42 45
CoverSCTFEWFEWFEWFEWFEWSCTBKNBKNBKNBKNBKNBKN
FltCatVFRVFRVFRVFRVFRVFRVFRVFRVFRVFRVFRVFRVFR
WX--------------------------
WDir03060604000000025020
WSpd3 4 4 5 3 3 6 5 4 4 0 7 5
WGst-- -- -- -- -- -- -- -- -- -- -- -- --
Raw hourly METARs
KTPA 230753Z VRB03KT 10SM FEW020 FEW230 SCT300 26/23 A2998 RMK AO2 SLP150 T02610228
KTPA 230853Z 03004KT 10SM FEW020 FEW250 26/23 A2996 RMK AO2 SLP146 T02610228 56012
KTPA 230953Z 06004KT 10SM FEW020 FEW250 26/23 A2996 RMK AO2 SLP146 T02610228
KTPA 231053Z 06005KT 10SM FEW020 FEW250 26/23 A2998 RMK AO2 SLP150 T02560228
KTPA 231153Z 04003KT 10SM FEW026 FEW200 26/23 A2999 RMK AO2 SLP154 TCU DSNT SW T02610228 10272 20256 53008
KTPA 231253Z VRB03KT 10SM FEW026 FEW090 FEW220 28/23 A3001 RMK AO2 SLP162 CB DSNT SW T02780233
KTPA 231353Z VRB06KT 10SM FEW024 FEW034 SCT190 29/23 A3002 RMK AO2 SLP165 CB DSNT S T02940233
KTPA 231453Z VRB05KT 10SM SCT026 BKN190 30/23 A3003 RMK AO2 SLP169 CU BLDG ALQDS T03000228 51015
KTPA 231553Z VRB04KT 10SM SCT040 BKN250 31/23 A3002 RMK AO2 SLP165 CU BLDG ALQDS T03060228
KTPA 231653Z VRB04KT 10SM BKN042 BKN250 31/23 A3001 RMK AO2 SLP160 CB BLDG ALQDS T03110228
KTPA 231753Z 00000KT 10SM BKN040 BKN250 32/23 A2999 RMK AO2 SLP153 CB DSNT NE AND SE AND SW T03170228 10322 20261 58016
KTPA 231853Z 25007KT 10SM BKN042CB 32/23 A2996 RMK AO2 RAB40E49 SLP145 CB W-NW MOV NW TCU ALQDS VCSH W P0000 T03220233
KTPA 231953Z 02005KT 10SM BKN045TCU BKN080 BKN300 33/23 A2995 RMK AO2 LTG DSNT NW SLP139 CB DSNT NW TCU ALQDS VCSH NW-N T03280228



Page loaded:  20:51 UTC  |   01:51 PM Pacific  |   02:51 PM Mountain  |   03:51 PM Central  |   04:51 PM Eastern

 

ADVISORIES

FORECASTS

FORECASTS

OBSERVATIONS

USER TOOLS

ABOUT US